Algona, Iowa
Current Conditions -  °F | °C
As of 4:55 PM on Wednesday 26 Nov 2014 (Local Time) from KAXA Reporting Station
Haze Haze  
Wind Chill: 11°   Ceiling: 1000
Heat Index: 25°   Visibility: 4mi
Dew Point: 23°   Wind: 20mph
Humidity: 93%   Direction: 360°N
Pressure: 30.23"   Gusts: 28mph
Location:  43.07°N, 94.23°W
Report Text: KAXA 262255Z AUTO 36017G24KT 4SM BR BKN010 BKN029 OVC065 M04/M05 A3023 RMK AO2
Loading
Personal Weather Stations






























Interactive Weather Map New forecast layout! Learn more

10-Day Weather Forecast

Advertisements
Track Severe Weather on mobile